Time;durP1;ratioP1;P1;durP2;ratioP2;P2;SDS_P1;SDS_P2;PMS_P1;PMS_P2;Temp;Humidity;BMP_temperature;BMP_pressure;BME280_temperature;BME280_humidity;BME280_pressure;Samples;Min_cycle;Max_cycle;Signal;HPM_P1;HPM_P2
2023/12/09 00:00:31;;;;;;;12.98;5.95;;;-10.00;61.70;;;;;;4981907;28;20540;-83
2023/12/09 00:02:58;;;;;;;14.63;5.80;;;-10.00;62.00;;;;;;5046020;28;20044;-81
2023/12/09 00:05:26;;;;;;;16.95;6.32;;;-9.90;62.20;;;;;;5013952;28;20099;-82
2023/12/09 00:07:55;;;;;;;10.27;5.18;;;-9.90;62.10;;;;;;5038888;28;20516;-83
2023/12/09 00:10:22;;;;;;;13.85;5.45;;;-9.90;62.80;;;;;;5080775;28;20525;-82
2023/12/09 00:12:50;;;;;;;16.35;6.13;;;-9.80;62.10;;;;;;5089273;28;20050;-83
2023/12/09 00:15:18;;;;;;;14.38;5.90;;;-9.80;61.80;;;;;;5071691;28;20046;-82
2023/12/09 00:17:46;;;;;;;7.35;3.55;;;-9.80;62.10;;;;;;5101145;28;20138;-86
2023/12/09 00:20:25;;;;;;;14.20;6.22;;;-9.80;62.10;;;;;;5100477;28;20108;-88
2023/12/09 00:22:57;;;;;;;13.65;5.75;;;-9.80;62.10;;;;;;4904897;28;20059;-88
2023/12/09 00:25:25;;;;;;;12.68;6.05;;;-9.80;62.00;;;;;;4957943;28;20137;-86
2023/12/09 00:27:53;;;;;;;11.18;6.22;;;-9.80;62.10;;;;;;4978234;28;20061;-86
2023/12/09 00:30:21;;;;;;;18.20;6.78;;;-9.80;62.30;;;;;;4979346;28;20657;-86
2023/12/09 00:32:49;;;;;;;9.23;4.90;;;-9.80;62.30;;;;;;5038553;28;20037;-88
2023/12/09 00:35:17;;;;;;;14.85;6.13;;;-9.80;62.60;;;;;;5028520;28;20041;-86
2023/12/09 00:37:45;;;;;;;12.38;5.95;;;-9.80;63.50;;;;;;5002480;28;20137;-87
2023/12/09 00:40:14;;;;;;;15.95;7.00;;;-9.90;62.80;;;;;;5050571;28;20053;-86
2023/12/09 00:42:42;;;;;;;9.32;5.50;;;-9.80;63.20;;;;;;5034493;28;20153;-85
2023/12/09 00:45:10;;;;;;;12.15;5.82;;;-9.80;63.40;;;;;;5066590;28;20056;-87
2023/12/09 00:47:38;;;;;;;12.35;5.97;;;-9.80;64.00;;;;;;5071816;28;20146;-85
2023/12/09 00:50:07;;;;;;;12.30;6.57;;;-9.90;63.20;;;;;;5044536;28;20131;-87
2023/12/09 00:52:35;;;;;;;14.52;6.32;;;-9.90;63.80;;;;;;5049637;28;20055;-88
2023/12/09 00:55:03;;;;;;;14.07;6.68;;;-9.80;63.90;;;;;;5069074;28;20056;-87
2023/12/09 00:57:33;;;;;;;15.32;6.88;;;-9.80;63.40;;;;;;5053788;28;20048;-88
2023/12/09 01:00:04;;;;;;;14.18;6.45;;;-9.80;63.30;;;;;;5034953;28;20060;-87
2023/12/09 01:02:33;;;;;;;16.00;5.97;;;-9.70;63.60;;;;;;5047528;28;20048;-87
2023/12/09 01:05:01;;;;;;;16.75;6.60;;;-9.70;63.50;;;;;;5050255;28;20048;-88
2023/12/09 01:07:32;;;;;;;13.20;6.50;;;-9.70;63.20;;;;;;5038756;28;20081;-88
2023/12/09 01:10:00;;;;;;;13.98;6.80;;;-9.70;63.20;;;;;;5019653;28;20148;-88
2023/12/09 01:21:17;;;;;;;10.45;6.47;;;-9.70;63.50;;;;;;5097181;27;1515374;-87
2023/12/09 01:23:45;;;;;;;11.27;5.68;;;-9.60;63.50;;;;;;5111834;28;20058;-89
2023/12/09 01:26:12;;;;;;;15.25;7.07;;;-9.70;63.20;;;;;;5095792;28;20078;-87
2023/12/09 01:28:40;;;;;;;15.30;6.05;;;-9.80;63.20;;;;;;5091512;28;20048;-86
2023/12/09 01:31:08;;;;;;;8.50;5.10;;;-9.80;63.40;;;;;;5074741;28;20044;-87
2023/12/09 01:33:37;;;;;;;13.68;6.88;;;-9.70;63.50;;;;;;5108982;28;20517;-87
2023/12/09 01:36:09;;;;;;;15.38;6.32;;;-9.80;63.40;;;;;;5103939;28;20071;-86
2023/12/09 01:38:38;;;;;;;14.52;6.43;;;-9.80;63.50;;;;;;5089980;28;20151;-87
2023/12/09 01:41:06;;;;;;;15.45;6.63;;;-9.70;63.70;;;;;;5108609;28;20059;-87
2023/12/09 01:43:34;;;;;;;10.25;5.43;;;-9.80;63.50;;;;;;5105727;28;20052;-87
2023/12/09 01:46:07;;;;;;;14.80;6.53;;;-9.80;64.30;;;;;;5121041;28;20410;-86
2023/12/09 01:48:35;;;;;;;18.13;6.93;;;-9.80;63.60;;;;;;5128304;28;20059;-86
2023/12/09 01:51:04;;;;;;;14.73;6.28;;;-9.70;63.80;;;;;;5116663;28;20043;-87
2023/12/09 01:53:32;;;;;;;16.55;8.13;;;-9.80;63.40;;;;;;5088178;28;20040;-88
2023/12/09 01:56:06;;;;;;;11.68;5.90;;;-9.90;63.50;;;;;;5080452;28;20108;-86
2023/12/09 01:58:35;;;;;;;14.27;6.40;;;-9.90;63.60;;;;;;5108266;28;20055;-81
2023/12/09 02:01:04;;;;;;;14.60;6.25;;;-9.90;63.60;;;;;;5089629;28;20540;-82
2023/12/09 02:03:34;;;;;;;15.50;7.07;;;-9.80;63.90;;;;;;5090068;28;20043;-82
2023/12/09 02:06:04;;;;;;;;;;;-9.80;63.80;;;;;;5091142;28;20050;-81
2023/12/09 02:08:32;;;;;;;13.02;5.65;;;-9.70;63.80;;;;;;5126233;28;20029;-82
2023/12/09 02:11:13;;;;;;;10.77;5.88;;;-9.80;63.50;;;;;;5107224;28;20052;-81
2023/12/09 02:13:55;;;;;;;17.40;6.10;;;-9.70;63.80;;;;;;5103676;28;20040;-80
2023/12/09 02:16:29;;;;;;;10.90;5.85;;;-9.70;63.70;;;;;;5083610;28;20047;-80
2023/12/09 02:19:00;;;;;;;12.40;5.90;;;-9.70;63.60;;;;;;5107780;28;20050;-80
2023/12/09 02:21:28;;;;;;;24.42;9.82;;;-9.70;63.80;;;;;;5093093;28;20473;-81
2023/12/09 02:23:57;;;;;;;14.18;6.15;;;-9.70;63.50;;;;;;5104718;28;20419;-80
2023/12/09 02:26:27;;;;;;;12.02;6.45;;;-9.80;63.30;;;;;;5122172;27;20083;-82
2023/12/09 02:29:01;;;;;;;13.88;6.10;;;-9.70;63.70;;;;;;5108217;28;20052;-79
2023/12/09 02:31:35;;;;;;;15.27;7.18;;;-9.60;63.60;;;;;;5102021;28;20135;-80
2023/12/09 02:34:05;;;;;;;15.43;6.22;;;-9.60;63.70;;;;;;5030420;28;20152;-82
2023/12/09 02:36:33;;;;;;;15.50;6.13;;;-9.60;63.40;;;;;;4996470;28;20125;-83
2023/12/09 02:39:04;;;;;;;13.90;5.47;;;-9.50;63.50;;;;;;4938462;28;20072;-84
2023/12/09 02:41:33;;;;;;;12.85;5.78;;;-9.60;63.40;;;;;;4832064;29;20066;-80
2023/12/09 02:44:00;;;;;;;16.30;6.22;;;-9.60;63.50;;;;;;4809621;29;20046;-81
2023/12/09 02:46:29;;;;;;;14.40;6.32;;;-9.60;63.40;;;;;;4833160;29;20053;-79
2023/12/09 02:48:56;;;;;;;13.63;6.28;;;-9.60;63.30;;;;;;4803143;29;20061;-80
2023/12/09 02:51:24;;;;;;;18.98;7.80;;;-9.50;63.50;;;;;;4794304;29;20616;-80
2023/12/09 02:56:58;;;;;;;15.80;6.82;;;-9.50;63.10;;;;;;5080755;27;1366629;-80
2023/12/09 02:59:28;;;;;;;16.05;6.72;;;-9.50;63.30;;;;;;5100386;28;20131;-79
2023/12/09 03:01:56;;;;;;;10.77;5.43;;;-9.50;63.10;;;;;;5107193;28;20056;-80
2023/12/09 03:04:24;;;;;;;13.25;6.32;;;-9.50;63.20;;;;;;5095065;28;20056;-80
2023/12/09 03:06:51;;;;;;;11.52;5.82;;;-9.40;63.20;;;;;;5088144;28;20058;-80
2023/12/09 03:09:19;;;;;;;13.20;6.18;;;-9.50;63.00;;;;;;5087202;28;20056;-81
2023/12/09 03:11:46;;;;;;;14.40;6.70;;;-9.50;62.90;;;;;;5068274;28;20052;-79
2023/12/09 03:14:15;;;;;;;15.02;7.82;;;-9.60;62.70;;;;;;5088123;28;20048;-79
2023/12/09 03:16:43;;;;;;;14.65;6.57;;;-9.60;63.00;;;;;;5087614;28;20052;-81
2023/12/09 03:19:11;;;;;;;12.65;6.18;;;-9.60;63.30;;;;;;5102609;28;20056;-80
2023/12/09 03:21:38;;;;;;;13.18;6.68;;;-9.60;63.30;;;;;;5085813;28;20044;-80
2023/12/09 03:24:09;;;;;;;16.05;6.05;;;-9.60;63.50;;;;;;5069438;28;20052;-80
2023/12/09 03:26:36;;;;;;;16.13;6.95;;;-9.60;63.40;;;;;;5085302;28;20044;-79
2023/12/09 03:29:04;;;;;;;14.98;6.30;;;-9.60;63.30;;;;;;5086480;28;20052;-81
2023/12/09 03:31:33;;;;;;;15.13;6.80;;;-9.60;63.20;;;;;;5087746;28;20048;-80
2023/12/09 03:34:00;;;;;;;12.38;6.13;;;-9.50;63.10;;;;;;5086442;28;20059;-81
2023/12/09 03:36:28;;;;;;;16.80;7.35;;;-9.50;63.20;;;;;;5086190;28;20147;-81
2023/12/09 03:38:55;;;;;;;13.10;6.47;;;-9.50;63.70;;;;;;5085449;28;20056;-79
2023/12/09 03:41:23;;;;;;;17.25;7.15;;;-9.50;63.00;;;;;;5087519;28;20059;-80
2023/12/09 03:43:51;;;;;;;15.00;6.57;;;-9.60;63.00;;;;;;5087420;28;20044;-80
2023/12/09 03:46:19;;;;;;;13.00;6.55;;;-9.50;63.20;;;;;;5085998;28;20060;-80
2023/12/09 03:48:48;;;;;;;14.10;5.72;;;-9.60;63.20;;;;;;5084707;28;20052;-79
2023/12/09 03:51:15;;;;;;;15.35;5.90;;;-9.60;63.20;;;;;;5085758;28;20423;-80
2023/12/09 03:53:43;;;;;;;11.25;5.90;;;-9.60;63.30;;;;;;5085859;28;20420;-80
2023/12/09 03:56:12;;;;;;;15.02;6.57;;;-9.60;63.60;;;;;;5085938;28;20060;-81
2023/12/09 03:58:40;;;;;;;14.65;7.05;;;-9.50;63.40;;;;;;5084152;28;20044;-80
2023/12/09 04:01:07;;;;;;;13.60;6.13;;;-9.40;63.30;;;;;;5077537;28;20055;-81
2023/12/09 04:03:35;;;;;;;14.43;6.53;;;-9.40;63.10;;;;;;5085768;28;20048;-80
2023/12/09 04:06:05;;;;;;;13.77;6.65;;;-9.50;62.90;;;;;;5091424;28;20040;-81
2023/12/09 04:08:34;;;;;;;12.40;6.72;;;-9.40;63.40;;;;;;5056463;28;20508;-80
2023/12/09 04:11:03;;;;;;;14.20;6.45;;;-9.40;63.40;;;;;;5079325;28;20047;-81
2023/12/09 04:13:31;;;;;;;16.23;6.43;;;-9.40;63.30;;;;;;5066184;28;20070;-80
2023/12/09 04:15:58;;;;;;;13.77;6.30;;;-9.50;63.00;;;;;;5059630;28;20052;-79
2023/12/09 04:18:26;;;;;;;11.82;5.90;;;-9.60;63.10;;;;;;5053387;28;20072;-79
2023/12/09 04:20:54;;;;;;;15.05;6.32;;;-9.50;63.20;;;;;;5069370;28;20390;-81
2023/12/09 04:23:24;;;;;;;13.77;6.22;;;-9.50;63.20;;;;;;5055706;28;20512;-87
2023/12/09 04:25:56;;;;;;;17.38;7.47;;;-9.60;63.20;;;;;;5068620;28;20407;-86
2023/12/09 04:28:24;;;;;;;13.43;6.50;;;-9.60;63.30;;;;;;5061163;28;20530;-88
2023/12/09 04:30:51;;;;;;;15.27;6.80;;;-9.70;63.60;;;;;;5051887;28;20509;-87
2023/12/09 04:33:19;;;;;;;15.15;6.28;;;-9.70;63.30;;;;;;5071742;28;20049;-85
2023/12/09 04:35:47;;;;;;;14.40;6.53;;;-9.80;63.40;;;;;;5065914;28;20048;-86
2023/12/09 04:38:15;;;;;;;18.60;6.72;;;-9.80;63.50;;;;;;5066785;28;20049;-87
2023/12/09 04:43:47;;;;;;;12.75;6.50;;;-10.00;63.80;;;;;;5065213;28;20063;-85
2023/12/09 04:46:24;;;;;;;15.80;6.63;;;-10.00;64.30;;;;;;5045089;28;20044;-84
2023/12/09 04:48:54;;;;;;;15.60;6.50;;;-10.10;64.40;;;;;;5045523;28;20063;-83
2023/12/09 04:51:21;;;;;;;15.20;7.05;;;-10.00;64.60;;;;;;5062730;28;20053;-82
2023/12/09 04:53:50;;;;;;;15.10;7.47;;;-10.00;64.60;;;;;;5045733;28;20052;-84
2023/12/09 04:56:29;;;;;;;14.25;7.30;;;-9.90;64.70;;;;;;5064347;28;20143;-84
2023/12/09 04:59:45;;;;;;;13.52;6.05;;;-9.80;64.20;;;;;;5070948;28;20048;-84
2023/12/09 05:02:21;;;;;;;12.32;5.95;;;-9.80;64.20;;;;;;5072808;28;20051;-85
2023/12/09 05:05:32;;;;;;;12.10;6.60;;;-9.70;64.40;;;;;;5071911;28;20048;-83
2023/12/09 05:08:17;;;;;;;11.32;6.72;;;-9.60;64.20;;;;;;5088494;28;20094;-83
2023/12/09 05:10:46;;;;;;;22.88;8.05;;;-9.50;63.80;;;;;;5054928;28;20102;-82
2023/12/09 05:13:33;;;;;;;17.88;8.02;;;-9.50;63.40;;;;;;5074424;28;20393;-85
2023/12/09 05:16:02;;;;;;;12.75;6.30;;;-9.40;63.50;;;;;;5075983;28;20571;-87
2023/12/09 05:18:41;;;;;;;16.88;7.50;;;-9.50;63.40;;;;;;5073697;28;20044;-88
2023/12/09 05:21:28;;;;;;;13.68;6.45;;;-9.50;63.30;;;;;;5074540;28;20056;-86
2023/12/09 05:24:02;;;;;;;14.15;6.47;;;-9.50;63.30;;;;;;5071612;28;20051;-79
2023/12/09 05:26:46;;;;;;;;;;;;;;;;;;;;;
2023/12/09 05:29:23;;;;;;;18.92;7.25;;;-9.50;63.10;;;;;;5055736;28;20075;-84
2023/12/09 05:31:54;;;;;;;16.42;7.28;;;-9.60;63.20;;;;;;5075261;28;20130;-86
2023/12/09 05:34:26;;;;;;;16.25;6.45;;;-9.50;63.50;;;;;;5075359;28;20044;-85
2023/12/09 05:36:53;;;;;;;18.23;7.95;;;-9.50;63.50;;;;;;5075483;28;20052;-83
2023/12/09 05:39:21;;;;;;;11.65;6.40;;;-9.50;63.30;;;;;;5072580;28;20512;-85
2023/12/09 05:42:06;;;;;;;;;;;;;;;;;;;;;
2023/12/09 05:44:36;;;;;;;16.85;6.50;;;-9.40;63.20;;;;;;5070160;28;20172;-82
2023/12/09 05:47:06;;;;;;;18.15;7.25;;;-9.50;63.20;;;;;;5073481;28;20083;-84
2023/12/09 05:49:37;;;;;;;10.15;4.85;;;-9.50;63.40;;;;;;5070795;28;20044;-85
2023/12/09 05:52:10;;;;;;;14.20;6.85;;;-9.40;63.30;;;;;;5068297;28;20136;-87
2023/12/09 05:54:41;;;;;;;19.10;7.25;;;-9.40;63.00;;;;;;5051390;28;20088;-85
2023/12/09 05:57:13;;;;;;;18.30;8.20;;;-9.40;63.00;;;;;;5059672;28;20231;-85
2023/12/09 05:59:46;;;;;;;18.20;7.72;;;-9.40;63.00;;;;;;5065856;28;20098;-88
2023/12/09 06:02:18;;;;;;;18.00;7.70;;;-9.50;63.20;;;;;;5062295;28;20565;-88
2023/12/09 06:04:54;;;;;;;16.85;6.78;;;-9.40;63.10;;;;;;5068042;28;20114;-87
2023/12/09 06:07:33;;;;;;;13.43;6.45;;;-9.40;63.00;;;;;;5074209;28;20039;-87
2023/12/09 06:10:12;;;;;;;19.88;8.40;;;-9.40;62.90;;;;;;5080025;28;20052;-88
2023/12/09 06:12:42;;;;;;;16.25;7.32;;;-9.50;63.10;;;;;;5070665;28;20438;-88
2023/12/09 06:15:30;;;;;;;20.90;7.97;;;-9.40;63.10;;;;;;5066811;28;20135;-89
2023/12/09 06:18:15;;;;;;;9.88;5.18;;;-9.40;62.90;;;;;;5052260;28;20052;-86
2023/12/09 06:20:45;;;;;;;16.17;7.45;;;-9.40;63.00;;;;;;5052217;28;20069;-84
2023/12/09 06:23:20;;;;;;;16.20;7.18;;;-9.40;63.00;;;;;;5063700;28;20056;-83
2023/12/09 06:25:48;;;;;;;16.80;6.88;;;-9.40;63.10;;;;;;5071140;28;20076;-85
2023/12/09 06:28:15;;;;;;;17.40;7.40;;;-9.40;63.10;;;;;;5071700;28;20044;-82
2023/12/09 06:30:44;;;;;;;16.95;8.07;;;-9.50;62.90;;;;;;5069089;28;20093;-82
2023/12/09 06:33:12;;;;;;;13.68;5.60;;;-9.40;63.20;;;;;;5070185;28;20044;-83
2023/12/09 06:35:53;;;;;;;17.17;7.95;;;-9.40;63.00;;;;;;5069957;28;20068;-84
2023/12/09 06:38:21;;;;;;;20.02;7.57;;;-9.40;63.00;;;;;;5070173;28;20048;-80
2023/12/09 06:40:49;;;;;;;18.15;6.57;;;-9.60;62.80;;;;;;5071117;28;20097;-82
2023/12/09 06:43:17;;;;;;;14.35;7.32;;;-9.50;63.20;;;;;;5063387;28;20566;-82
2023/12/09 06:45:46;;;;;;;18.13;7.75;;;-9.50;63.40;;;;;;5053009;28;20055;-83
2023/12/09 06:48:17;;;;;;;17.95;7.93;;;-9.50;63.40;;;;;;5056071;28;20053;-88
2023/12/09 06:51:03;;;;;;;24.65;8.38;;;-9.50;63.10;;;;;;5057082;28;20052;-87
2023/12/09 06:53:31;;;;;;;17.73;7.80;;;-9.40;63.20;;;;;;5070720;28;20056;-90
2023/12/09 06:56:08;;;;;;;19.77;8.40;;;-9.40;63.20;;;;;;5074865;28;20063;-85
2023/12/09 06:58:38;;;;;;;16.45;8.00;;;-9.40;62.90;;;;;;5052021;28;20084;-85
2023/12/09 07:01:27;;;;;;;10.43;4.32;;;-9.40;63.10;;;;;;5037321;28;20049;-86
2023/12/09 07:03:58;;;;;;;19.40;6.78;;;-9.50;62.70;;;;;;5051299;28;20049;-88
2023/12/09 07:07:06;;;;;;;;;;;;;;;;;;;;;
2023/12/09 07:10:15;;;;;;;24.90;9.30;;;-9.60;63.20;;;;;;4945931;28;20051;-84
2023/12/09 07:20:04;;;;;;;;;;;;;;;;;;;;;
2023/12/09 07:22:56;;;;;;;19.77;8.10;;;-9.60;63.10;;;;;;5018483;28;20513;-85
2023/12/09 07:25:29;;;;;;;;;;;-9.60;63.00;;;;;;5021407;28;20096;-86
2023/12/09 07:28:33;;;;;;;24.05;8.32;;;-9.60;63.20;;;;;;5028572;28;20392;-87
2023/12/09 07:31:32;;;;;;;;;;;;;;;;;;;;;
2023/12/09 07:35:05;;;;;;;17.98;8.25;;;-9.70;62.80;;;;;;5003512;28;20076;-87
2023/12/09 07:37:56;;;;;;;15.13;6.13;;;-9.80;62.90;;;;;;5003047;28;20053;-86
2023/12/09 07:40:53;;;;;;;25.83;8.88;;;-9.90;62.90;;;;;;5025326;28;20048;-85
2023/12/09 07:43:35;;;;;;;;;;;;;;;;;;;;;
2023/12/09 07:46:24;;;;;;;18.05;8.32;;;-9.80;62.90;;;;;;5017963;28;20100;-82
2023/12/09 07:49:49;;;;;;;;;;;;;;;;;;;;;
2023/12/09 07:53:16;;;;;;;;;;;;;;;;;;;;;
2023/12/09 07:56:25;;;;;;;18.65;8.15;;;-9.80;62.20;;;;;;5027538;28;20148;-85
2023/12/09 07:59:21;;;;;;;16.77;7.00;;;-9.90;62.00;;;;;;5040729;28;20078;-84
2023/12/09 08:02:34;;;;;;;19.25;7.90;;;-9.90;61.90;;;;;;5074655;28;20044;-86
2023/12/09 08:05:07;;;;;;;14.57;6.43;;;-9.90;61.60;;;;;;5058967;28;20082;-84
2023/12/09 08:07:49;;;;;;;;;;;-9.80;61.60;;;;;;5071496;28;20102;-84
2023/12/09 08:11:32;;;;;;;;;;;;;;;;;;;;;
2023/12/09 08:15:21;;;;;;;;;;;;;;;;;;;;;
2023/12/09 08:22:02;;;;;;;15.57;6.13;;;-10.00;61.00;;;;;;5056478;28;20061;-85
2023/12/09 08:37:24;;;;;;;14.88;5.93;;;-10.00;60.30;;;;;;4876348;29;20265;-85
2023/12/09 08:39:57;;;;;;;19.88;7.93;;;-10.00;60.70;;;;;;5082690;28;20067;-85
2023/12/09 08:42:55;;;;;;;16.75;7.05;;;-9.90;60.40;;;;;;5070820;28;20056;-85
2023/12/09 08:46:06;;;;;;;;;;;;;;;;;;;;;
2023/12/09 08:49:11;;;;;;;20.75;7.57;;;-10.00;59.70;;;;;;5014794;28;20041;-84
2023/12/09 08:52:41;;;;;;;21.60;8.15;;;-9.90;59.80;;;;;;5040922;28;20072;-85
2023/12/09 08:55:56;;;;;;;17.25;7.28;;;-9.80;59.60;;;;;;5036928;28;20116;-85
2023/12/09 08:58:54;;;;;;;20.33;7.78;;;-10.00;59.40;;;;;;5042199;28;20053;-84
2023/12/09 09:01:57;;;;;;;12.80;6.97;;;-10.00;59.60;;;;;;5038077;28;20118;-83
2023/12/09 09:04:34;;;;;;;18.52;8.23;;;-10.00;59.40;;;;;;5057924;28;20055;-85
2023/12/09 09:07:19;;;;;;;23.02;9.13;;;-10.10;59.40;;;;;;5039034;28;20497;-83
2023/12/09 09:09:51;;;;;;;19.63;8.15;;;-10.20;59.50;;;;;;5057324;28;20103;-83
2023/12/09 09:12:19;;;;;;;24.60;8.20;;;-10.00;59.70;;;;;;5020298;28;20049;-84
2023/12/09 09:14:57;;;;;;;20.88;8.52;;;-10.10;59.50;;;;;;5035191;28;20128;-83
2023/12/09 09:17:30;;;;;;;19.55;8.82;;;-10.00;59.30;;;;;;4998607;28;20316;-84
2023/12/09 09:20:08;;;;;;;19.13;8.60;;;-10.00;59.20;;;;;;5033631;28;20053;-82
2023/12/09 09:22:36;;;;;;;18.33;7.13;;;-10.00;59.20;;;;;;4999342;28;20116;-83
2023/12/09 09:25:24;;;;;;;20.67;7.70;;;-10.00;59.10;;;;;;5016298;28;20050;-83
2023/12/09 09:27:55;;;;;;;22.00;9.38;;;-10.00;59.30;;;;;;5017861;28;20072;-83
2023/12/09 09:30:30;;;;;;;19.02;8.60;;;-9.90;59.30;;;;;;5033640;28;20131;-82
2023/12/09 09:33:30;;;;;;;19.00;8.45;;;-9.90;59.00;;;;;;5024962;28;20084;-84
2023/12/09 09:36:01;;;;;;;19.48;7.72;;;-9.90;59.00;;;;;;5016726;28;20080;-83
2023/12/09 09:38:55;;;;;;;24.15;9.55;;;-9.90;58.90;;;;;;5034027;28;20049;-86
2023/12/09 09:41:46;;;;;;;14.60;7.45;;;-9.90;58.90;;;;;;5035677;28;20054;-85
2023/12/09 09:45:00;;;;;;;18.63;9.18;;;-9.80;58.80;;;;;;5015031;28;20560;-83
2023/12/09 09:47:44;;;;;;;22.05;8.70;;;-9.80;58.60;;;;;;5017049;28;20049;-84
2023/12/09 09:50:19;;;;;;;18.88;8.30;;;-9.70;58.60;;;;;;5038448;28;20178;-84
2023/12/09 09:52:53;;;;;;;19.25;8.23;;;-9.60;58.50;;;;;;5090300;28;20155;-84
2023/12/09 09:55:35;;;;;;;38.13;14.38;;;-9.40;58.50;;;;;;5063559;28;20397;-83
2023/12/09 09:59:05;;;;;;;;;;;;;;;;;;;;;
2023/12/09 10:02:43;;;;;;;;;;;;;;;;;;;;;
2023/12/09 11:30:47;;;;;;;17.98;8.05;;;-9.50;59.20;;;;;;4653768;27;20311;-81
2023/12/09 11:33:40;;;;;;;20.55;8.20;;;-9.50;59.40;;;;;;4888971;29;20056;-82
2023/12/09 11:36:38;;;;;;;;;;;;;;;;;;;;;
2023/12/09 11:43:47;;;;;;;24.00;9.55;;;-9.40;59.60;;;;;;4508654;31;20067;-81
2023/12/09 12:23:35;;;;;;;24.48;9.30;;;-9.40;60.40;;;;;;4947514;28;3692541;-82
2023/12/09 12:26:18;;;;;;;28.20;9.23;;;-9.50;60.10;;;;;;5091578;28;20063;-80
2023/12/09 12:29:05;;;;;;;;;;;;;;;;;;;;;
2023/12/09 12:36:36;;;;;;;27.60;9.73;;;-9.70;60.70;;;;;;5063893;28;20048;-82
2023/12/09 12:39:15;;;;;;;22.42;8.90;;;-9.60;61.00;;;;;;5072619;28;20201;-84
2023/12/09 12:42:01;;;;;;;;;;;;;;;;;;;;;
2023/12/09 12:44:43;;;;;;;23.02;8.85;;;-9.40;61.00;;;;;;5070967;28;20397;-80
2023/12/09 12:48:23;;;;;;;;;;;;;;;;;;;;;
2023/12/09 12:52:18;;;;;;;;;;;;;;;;;;;;;
2023/12/09 13:00:16;;;;;;;;;;;;;;;;;;;;;
2023/12/09 13:19:05;;;;;;;;;;;;;;;;;;;;;
2023/12/09 13:22:46;;;;;;;24.25;7.68;;;-9.60;61.80;;;;;;4912493;29;20093;-84
2023/12/09 13:26:02;;;;;;;;;;;;;;;;;;;;;
2023/12/09 13:33:17;;;;;;;21.80;7.95;;;-9.60;61.80;;;;;;4991439;28;20073;-79
2023/12/09 13:36:36;;;;;;;;;;;;;;;;;;;;;
2023/12/09 13:43:41;;;;;;;21.40;7.78;;;-9.60;62.00;;;;;;4821737;29;20065;-84
2023/12/09 13:53:54;;;;;;;22.95;9.00;;;-9.60;62.10;;;;;;4749550;29;20065;-83
2023/12/09 14:05:34;;;;;;;;;;;;;;;;;;;;;
2023/12/09 14:08:54;;;;;;;16.85;8.10;;;-9.60;62.00;;;;;;5009150;28;20048;-84
2023/12/09 14:14:26;;;;;;;23.05;10.80;;;-9.70;62.40;;;;;;5093224;28;20036;-84
2023/12/09 14:17:45;;;;;;;;;;;;;;;;;;;;;
2023/12/09 14:20:19;;;;;;;20.53;9.13;;;-9.60;62.00;;;;;;4977451;28;20514;-85
2023/12/09 14:22:47;;;;;;;21.52;7.80;;;-9.60;62.10;;;;;;5068131;28;20135;-84
2023/12/09 14:25:17;;;;;;;22.92;9.63;;;-9.50;62.20;;;;;;5071459;28;20051;-82
2023/12/09 14:27:49;;;;;;;21.35;9.00;;;-9.50;62.10;;;;;;5083166;28;20083;-83
2023/12/09 14:30:19;;;;;;;25.52;9.90;;;-9.50;62.10;;;;;;5076798;28;20063;-83
2023/12/09 14:32:50;;;;;;;26.60;10.15;;;-9.60;62.00;;;;;;5091069;28;20546;-84
2023/12/09 14:35:18;;;;;;;26.33;9.57;;;-9.60;62.30;;;;;;5066311;28;20048;-84
2023/12/09 14:37:48;;;;;;;23.88;10.32;;;-9.50;62.40;;;;;;5073031;28;20053;-84
2023/12/09 14:40:17;;;;;;;28.30;10.98;;;-9.50;62.20;;;;;;5072279;28;20048;-83
2023/12/09 14:42:46;;;;;;;23.60;10.00;;;-9.50;62.70;;;;;;5053333;28;20481;-84
2023/12/09 14:45:17;;;;;;;26.08;10.25;;;-9.50;62.20;;;;;;5038355;28;20404;-83
2023/12/09 14:47:47;;;;;;;21.30;9.13;;;-9.60;62.10;;;;;;5058512;28;20048;-83
2023/12/09 14:50:15;;;;;;;24.13;9.65;;;-9.60;62.20;;;;;;5071858;28;20040;-83
2023/12/09 14:52:43;;;;;;;23.63;9.75;;;-9.60;62.20;;;;;;5055466;28;20139;-84
2023/12/09 14:55:11;;;;;;;26.67;10.38;;;-9.50;62.40;;;;;;5082837;28;20041;-84
2023/12/09 14:57:43;;;;;;;35.22;13.30;;;-9.60;62.30;;;;;;5063980;28;20404;-84
2023/12/09 15:00:13;;;;;;;24.58;9.70;;;-9.60;62.60;;;;;;5062148;28;20507;-84
2023/12/09 15:02:41;;;;;;;27.60;10.20;;;-9.50;62.60;;;;;;5094755;28;20044;-83
2023/12/09 15:05:13;;;;;;;24.13;10.05;;;-9.50;62.40;;;;;;5094865;28;20105;-82
2023/12/09 15:08:08;;;;;;;;;;;;;;;;;;;;;
2023/12/09 15:11:43;;;;;;;;;;;;;;;;;;;;;
2023/12/09 15:14:37;;;;;;;26.90;9.90;;;-9.40;62.50;;;;;;5012204;28;20039;-86
2023/12/09 15:17:09;;;;;;;22.10;9.00;;;-9.50;62.30;;;;;;5068459;28;20083;-85
2023/12/09 15:19:43;;;;;;;25.73;8.70;;;-9.50;62.40;;;;;;5092341;28;20052;-83
2023/12/09 15:22:15;;;;;;;23.17;8.98;;;-9.70;62.30;;;;;;5060871;28;20045;-83
2023/12/09 15:24:53;;;;;;;20.92;7.55;;;-9.50;62.80;;;;;;5060309;28;20090;-83
2023/12/09 15:40:37;;;;;;;;;;;;;;;;;;;;;
2023/12/09 15:49:43;;;;;;;;;;;;;;;;;;;;;
2023/12/09 15:53:00;;;;;;;26.08;9.18;;;-9.40;62.20;;;;;;4944282;28;20535;-88
2023/12/09 15:55:55;;;;;;;27.77;10.68;;;-9.40;62.30;;;;;;4865423;29;20060;-84
2023/12/09 16:05:07;;;;;;;;;;;;;;;;;;;;;
2023/12/09 16:08:35;;;;;;;21.70;9.82;;;-9.40;62.40;;;;;;5053667;28;20508;-84
2023/12/09 16:11:55;;;;;;;27.08;9.75;;;-9.40;62.60;;;;;;4985789;28;20065;-84
2023/12/09 16:15:28;;;;;;;29.33;11.40;;;-9.40;62.70;;;;;;4991491;28;20061;-83
2023/12/09 16:18:28;;;;;;;23.88;9.90;;;-9.30;63.40;;;;;;4935607;29;20056;-84
2023/12/09 16:26:03;;;;;;;;;;;;;;;;;;;;;
2023/12/09 16:29:53;;;;;;;;;;;;;;;;;;;;;
2023/12/09 17:05:01;;;;;;;;;;;;;;;;;;;;;
2023/12/09 17:07:52;;;;;;;34.60;11.15;;;-9.40;63.10;;;;;;5013818;28;20042;-82
2023/12/09 17:11:13;;;;;;;30.75;11.65;;;-9.40;63.20;;;;;;5008425;28;20050;-83
2023/12/09 17:26:45;;;;;;;29.20;10.93;;;-9.30;62.90;;;;;;4796978;29;20697;-86
2023/12/09 17:29:21;;;;;;;31.25;11.93;;;-9.30;62.80;;;;;;4929352;29;20070;-82
2023/12/09 17:31:57;;;;;;;19.98;9.38;;;-9.30;62.80;;;;;;4979871;28;20068;-84
2023/12/09 17:34:39;;;;;;;40.40;13.20;;;-9.20;62.60;;;;;;5039793;28;20096;-83
2023/12/09 17:37:43;;;;;;;;;;;;;;;;;;;;;
2023/12/09 17:40:53;;;;;;;18.38;7.72;;;-9.30;62.70;;;;;;5005728;28;20104;-84
2023/12/09 17:46:56;;;;;;;;;;;;;;;;;;;;;
2023/12/09 17:50:16;;;;;;;;;;;;;;;;;;;;;
2023/12/09 17:53:21;;;;;;;;;;;;;;;;;;;;;
2023/12/09 17:56:18;;;;;;;27.02;10.30;;;-9.30;63.00;;;;;;5017988;28;20045;-87
2023/12/09 17:59:33;;;;;;;;;;;;;;;;;;;;;
2023/12/09 18:02:24;;;;;;;32.25;11.75;;;-9.30;63.00;;;;;;4968380;28;20080;-86
2023/12/09 18:05:30;;;;;;;;;;;;;;;;;;;;;
2023/12/09 18:08:32;;;;;;;;;;;;;;;;;;;;;
2023/12/09 18:11:21;;;;;;;28.17;11.45;;;-9.30;63.00;;;;;;4755862;29;20124;-83
2023/12/09 18:13:52;;;;;;;23.07;10.53;;;-9.20;63.30;;;;;;4758912;29;20039;-80
2023/12/09 18:16:28;;;;;;;24.85;10.75;;;-9.20;63.20;;;;;;4671219;30;20100;-81
2023/12/09 18:19:01;;;;;;;28.42;11.95;;;-9.20;62.90;;;;;;4639155;30;20522;-80
2023/12/09 18:21:28;;;;;;;28.58;10.95;;;-9.20;63.10;;;;;;4664296;30;20075;-80
2023/12/09 18:24:03;;;;;;;27.90;11.80;;;-9.20;63.00;;;;;;4622323;30;20059;-80
2023/12/09 18:26:31;;;;;;;26.25;10.70;;;-9.20;62.90;;;;;;4598994;30;20063;-81
2023/12/09 18:29:00;;;;;;;25.00;11.10;;;-9.10;63.00;;;;;;4608318;30;20067;-80
2023/12/09 18:32:13;;;;;;;;;;;;;;;;;;;;;
2023/12/09 18:34:58;;;;;;;28.40;10.50;;;-9.10;62.80;;;;;;4329049;32;20063;-81
2023/12/09 18:37:27;;;;;;;30.60;12.43;;;-9.20;62.70;;;;;;4350308;32;20460;-80
2023/12/09 18:46:09;;;;;;;28.50;11.50;;;-9.20;62.90;;;;;;4486338;31;20074;-80
2023/12/09 19:09:43;;;;;;;;;;;;;;;;;;;;;
2023/12/09 19:13:14;;;;;;;;;;;;;;;;;;;;;
2023/12/09 19:21:35;;;;;;;;;;;;;;;;;;;;;
2023/12/09 19:25:35;;;;;;;;;;;;;;;;;;;;;
2023/12/09 19:50:56;;;;;;;;;;;;;;;;;;;;;
2023/12/09 19:55:11;;;;;;;;;;;;;;;;;;;;;
2023/12/09 19:58:34;;;;;;;;;;;;;;;;;;;;;
2023/12/09 20:05:53;;;;;;;24.30;11.07;;;-8.90;62.30;;;;;;5028949;28;20080;-90
2023/12/09 21:18:05;;;;;;;;;;;;;;;;;;;;;
2023/12/09 21:21:57;;;;;;;;;;;;;;;;;;;;;
2023/12/09 21:25:23;;;;;;;29.33;11.10;;;-8.90;62.50;;;;;;4791960;29;20079;-89
2023/12/09 21:29:10;;;;;;;;;;;;;;;;;;;;;
2023/12/09 21:32:44;;;;;;;;;;;;;;;;;;;;;
2023/12/09 22:37:07;;;;;;;23.65;10.05;;;-8.80;61.80;;;;;;5836630;23;20033;-88
2023/12/09 22:39:37;;;;;;;24.90;9.82;;;-8.90;61.70;;;;;;6082420;23;20124;-89
2023/12/09 22:42:06;;;;;;;27.48;10.50;;;-8.90;62.00;;;;;;6134901;23;20017;-89
2023/12/09 22:44:34;;;;;;;23.10;9.50;;;-8.80;62.50;;;;;;6301231;22;20084;-88
2023/12/09 22:47:06;;;;;;;23.67;9.75;;;-8.80;62.30;;;;;;6260549;22;20110;-88
2023/12/09 22:49:39;;;;;;;31.25;11.07;;;-8.80;62.10;;;;;;6324672;22;20015;-90
2023/12/09 22:52:10;;;;;;;23.20;9.65;;;-8.80;62.10;;;;;;6261024;22;20046;-88
2023/12/09 22:54:42;;;;;;;28.63;10.68;;;-8.70;62.10;;;;;;6260149;22;20118;-87
2023/12/09 22:57:15;;;;;;;21.63;9.90;;;-8.80;62.10;;;;;;6260203;22;20351;-88
2023/12/09 22:59:44;;;;;;;26.33;10.60;;;-8.80;62.40;;;;;;6285628;22;20033;-88
2023/12/09 23:02:12;;;;;;;19.98;8.77;;;-8.70;62.50;;;;;;6313428;22;20102;-87
2023/12/09 23:04:42;;;;;;;26.25;11.02;;;-8.70;62.30;;;;;;6312728;22;20371;-88